Time;durP1;ratioP1;P1;durP2;ratioP2;P2;SDS_P1;SDS_P2;PMS_P1;PMS_P2;Temp;Humidity;BMP_temperature;BMP_pressure;BME280_temperature;BME280_humidity;BME280_pressure;Samples;Min_cycle;Max_cycle;Signal;HPM_P1;HPM_P2
2023/04/06 00:01:46;;;;;;;5.27;4.17;;;;;;;;;;5028377;28;20214;-24
2023/04/06 00:04:15;;;;;;;4.70;4.20;;;;;;;;;;5032326;28;20673;-25
2023/04/06 00:06:42;;;;;;;5.70;4.50;;;;;;;;;;5048601;28;20208;-24
2023/04/06 00:09:09;;;;;;;8.07;4.13;;;;;;;;;;5046881;28;20198;-27
2023/04/06 00:11:37;;;;;;;7.03;4.93;;;;;;;;;;5047310;28;20401;-26
2023/04/06 00:14:04;;;;;;;5.03;4.33;;;;;;;;;;5052787;28;20218;-28
2023/04/06 00:16:31;;;;;;;5.43;4.27;;;;;;;;;;5042460;28;20226;-27
2023/04/06 00:18:58;;;;;;;5.33;4.47;;;;;;;;;;5047970;28;20199;-25
2023/04/06 00:21:26;;;;;;;7.43;4.57;;;;;;;;;;5049403;28;20198;-25
2023/04/06 00:23:54;;;;;;;5.40;4.70;;;;;;;;;;5046544;28;20226;-25
2023/04/06 00:26:21;;;;;;;8.60;4.60;;;;;;;;;;5044483;28;20219;-25
2023/04/06 00:28:50;;;;;;;7.60;4.40;;;;;;;;;;5051673;28;20194;-27
2023/04/06 00:31:17;;;;;;;5.37;4.83;;;;;;;;;;5037703;28;20209;-28
2023/04/06 00:33:44;;;;;;;8.43;4.23;;;;;;;;;;5046637;28;20232;-27
2023/04/06 00:36:11;;;;;;;6.30;5.03;;;;;;;;;;5052693;28;20206;-27
2023/04/06 00:38:40;;;;;;;6.63;5.10;;;;;;;;;;5052820;28;20206;-26
2023/04/06 00:41:07;;;;;;;6.97;5.47;;;;;;;;;;5049870;28;20208;-25
2023/04/06 00:43:34;;;;;;;7.07;4.77;;;;;;;;;;5047909;28;20233;-24
2023/04/06 00:46:01;;;;;;;6.00;5.10;;;;;;;;;;5039715;28;20260;-25
2023/04/06 00:48:30;;;;;;;8.23;5.30;;;;;;;;;;5047032;28;20212;-26
2023/04/06 00:50:57;;;;;;;8.57;5.50;;;;;;;;;;5045945;28;20198;-24
2023/04/06 00:53:25;;;;;;;6.67;5.37;;;;;;;;;;5053021;28;20222;-25
2023/04/06 00:55:53;;;;;;;8.33;5.20;;;;;;;;;;5038023;28;20290;-28
2023/04/06 00:58:20;;;;;;;5.37;4.73;;;;;;;;;;5048719;28;20205;-24
2023/04/06 01:00:48;;;;;;;6.73;4.90;;;;;;;;;;5032159;28;20229;-27
2023/04/06 01:03:15;;;;;;;10.83;5.03;;;;;;;;;;5043707;28;20218;-24
2023/04/06 01:05:43;;;;;;;5.53;4.93;;;;;;;;;;5033631;28;20730;-27
2023/04/06 01:08:10;;;;;;;6.20;5.60;;;;;;;;;;5033588;28;20210;-26
2023/04/06 01:10:38;;;;;;;6.97;5.57;;;;;;;;;;5035388;28;20244;-27
2023/04/06 01:13:07;;;;;;;4.73;4.13;;;;;;;;;;5048621;28;20229;-24
2023/04/06 01:15:38;;;;;;;8.77;5.47;;;;;;;;;;5047967;28;20684;-24
2023/04/06 01:18:06;;;;;;;5.77;4.63;;;;;;;;;;5039387;28;20203;-26
2023/04/06 01:20:33;;;;;;;7.07;4.77;;;;;;;;;;5039221;28;20226;-25
2023/04/06 01:23:02;;;;;;;6.03;4.93;;;;;;;;;;5029605;28;20700;-27
2023/04/06 01:25:29;;;;;;;6.53;5.50;;;;;;;;;;5039896;28;20207;-25
2023/04/06 01:27:56;;;;;;;6.30;5.60;;;;;;;;;;5051422;28;20209;-26
2023/04/06 01:30:23;;;;;;;7.37;5.27;;;;;;;;;;5041074;28;20220;-27
2023/04/06 01:32:50;;;;;;;7.67;5.60;;;;;;;;;;5040178;28;20225;-26
2023/04/06 01:35:18;;;;;;;5.20;4.70;;;;;;;;;;5042751;28;20199;-27
2023/04/06 01:37:45;;;;;;;6.13;4.80;;;;;;;;;;5051331;28;20243;-25
2023/04/06 01:40:14;;;;;;;6.67;5.50;;;;;;;;;;5048484;28;20206;-24
2023/04/06 01:42:44;;;;;;;7.23;5.80;;;;;;;;;;5042855;28;20252;-25
2023/04/06 01:45:11;;;;;;;5.77;5.17;;;;;;;;;;5047713;28;20237;-24
2023/04/06 01:47:39;;;;;;;7.40;5.20;;;;;;;;;;5038247;28;20212;-28
2023/04/06 01:50:07;;;;;;;11.10;5.30;;;;;;;;;;5036960;28;20236;-27
2023/04/06 01:52:34;;;;;;;7.40;4.80;;;;;;;;;;5030707;28;20214;-27
2023/04/06 01:55:01;;;;;;;7.60;4.47;;;;;;;;;;5036500;28;20202;-25
2023/04/06 01:57:30;;;;;;;6.50;4.83;;;;;;;;;;5041254;28;20206;-26
2023/04/06 01:59:57;;;;;;;6.63;4.77;;;;;;;;;;5038602;28;20202;-25
2023/04/06 02:02:24;;;;;;;5.97;4.77;;;;;;;;;;5042300;28;20652;-26
2023/04/06 02:04:51;;;;;;;6.33;4.83;;;;;;;;;;5030454;28;20229;-25
2023/04/06 02:07:18;;;;;;;7.17;4.87;;;;;;;;;;5030718;28;20215;-24
2023/04/06 02:09:46;;;;;;;7.57;5.30;;;;;;;;;;5034105;28;20216;-25
2023/04/06 02:12:13;;;;;;;5.43;4.93;;;;;;;;;;5047144;28;20224;-28
2023/04/06 02:14:42;;;;;;;5.90;4.60;;;;;;;;;;5031710;28;20229;-28
2023/04/06 02:17:09;;;;;;;5.30;4.80;;;;;;;;;;5030970;28;20230;-28
2023/04/06 02:19:36;;;;;;;6.10;4.87;;;;;;;;;;5048159;28;20202;-26
2023/04/06 02:22:03;;;;;;;6.00;4.50;;;;;;;;;;5050468;28;20206;-29
2023/04/06 02:24:30;;;;;;;7.97;4.40;;;;;;;;;;5044460;28;20248;-24
2023/04/06 02:26:57;;;;;;;5.43;4.50;;;;;;;;;;5046881;28;20221;-28
2023/04/06 02:29:25;;;;;;;4.60;4.00;;;;;;;;;;5041652;28;20209;-27
2023/04/06 02:31:53;;;;;;;5.80;4.53;;;;;;;;;;5038875;28;20227;-27
2023/04/06 02:34:20;;;;;;;6.20;4.37;;;;;;;;;;5037500;28;20222;-26
2023/04/06 02:36:48;;;;;;;8.90;4.63;;;;;;;;;;5030367;28;20202;-26
2023/04/06 02:39:15;;;;;;;5.37;4.43;;;;;;;;;;5029986;28;20716;-25
2023/04/06 02:41:42;;;;;;;6.97;4.73;;;;;;;;;;5033088;28;20203;-28
2023/04/06 02:44:10;;;;;;;6.50;4.73;;;;;;;;;;5035425;28;20218;-27
2023/04/06 02:46:37;;;;;;;6.93;4.60;;;;;;;;;;5030394;28;20254;-25
2023/04/06 02:49:06;;;;;;;6.37;4.03;;;;;;;;;;5029243;28;20195;-25
2023/04/06 02:51:33;;;;;;;4.87;4.37;;;;;;;;;;5047600;28;20277;-25
2023/04/06 02:54:00;;;;;;;7.83;4.90;;;;;;;;;;5049294;28;20224;-27
2023/04/06 02:56:27;;;;;;;8.17;4.83;;;;;;;;;;5040678;28;20233;-28
2023/04/06 02:58:54;;;;;;;6.43;4.97;;;;;;;;;;5037257;28;20223;-24
2023/04/06 03:01:21;;;;;;;6.27;5.13;;;;;;;;;;5027426;28;20209;-27
2023/04/06 03:03:48;;;;;;;7.23;5.37;;;;;;;;;;5044039;28;20214;-25
2023/04/06 03:06:17;;;;;;;5.40;4.47;;;;;;;;;;5049359;28;20201;-28
2023/04/06 03:08:44;;;;;;;5.27;4.50;;;;;;;;;;5040885;28;20217;-28
2023/04/06 03:14:12;;;;;;;5.30;4.53;;;;;;;;;;5070516;22;20233;-26
2023/04/06 03:17:06;;;;;;;6.73;4.87;;;;;;;;;;5057203;28;20275;-27
2023/04/06 03:19:45;;;;;;;7.47;4.57;;;;;;;;;;5068795;28;20209;-29
2023/04/06 03:22:30;;;;;;;;;;;;;;;;;;;;;
2023/04/06 03:27:42;;;;;;;6.30;4.93;;;;;;;;;;5056143;28;20209;-28
2023/04/06 03:30:38;;;;;;;6.07;5.03;;;;;;;;;;5070037;28;20677;-26
2023/04/06 03:33:16;;;;;;;6.13;4.73;;;;;;;;;;5067389;28;20225;-27
2023/04/06 03:41:31;;;;;;;6.10;5.27;;;;;;;;;;5041723;28;20210;-29
2023/04/06 03:44:08;;;;;;;6.97;5.47;;;;;;;;;;5053935;28;20237;-30
2023/04/06 03:52:28;;;;;;;;;;;;;;;;;;;;;
2023/04/06 03:55:28;;;;;;;6.13;4.97;;;;;;;;;;5055594;28;20229;-26
2023/04/06 03:58:16;;;;;;;7.20;5.03;;;;;;;;;;5052488;28;20205;-28
2023/04/06 04:00:59;;;;;;;7.13;4.27;;;;;;;;;;5030343;28;20205;-27
2023/04/06 04:03:46;;;;;;;6.57;4.83;;;;;;;;;;5047567;28;20229;-27
2023/04/06 04:06:28;;;;;;;5.03;4.33;;;;;;;;;;5056586;28;20190;-26
2023/04/06 04:15:20;;;;;;;6.23;4.23;;;;;;;;;;4977873;28;20211;-27
2023/04/06 04:18:03;;;;;;;5.87;4.67;;;;;;;;;;5050413;28;20212;-27
2023/04/06 04:20:55;;;;;;;8.43;5.40;;;;;;;;;;5054653;28;20202;-27
2023/04/06 04:23:41;;;;;;;6.57;4.60;;;;;;;;;;5048713;28;20221;-28
2023/04/06 04:26:29;;;;;;;6.40;4.83;;;;;;;;;;5048336;28;20223;-28
2023/04/06 04:28:59;;;;;;;6.63;4.57;;;;;;;;;;5034897;28;20210;-28
2023/04/06 04:31:34;;;;;;;7.13;5.30;;;;;;;;;;5046770;28;20208;-28
2023/04/06 04:34:25;;;;;;;6.97;5.43;;;;;;;;;;5052128;28;20232;-27
2023/04/06 04:40:09;;;;;;;6.87;5.00;;;;;;;;;;5054994;28;20205;-29
2023/04/06 04:45:33;;;;;;;5.73;4.53;;;;;;;;;;5040075;28;20221;-32
2023/04/06 04:48:09;;;;;;;6.03;4.33;;;;;;;;;;5055180;28;20539;-28
2023/04/06 04:51:01;;;;;;;7.70;4.93;;;;;;;;;;5045824;28;20202;-26
2023/04/06 04:56:22;;;;;;;9.07;5.30;;;;;;;;;;5026775;28;20214;-27
2023/04/06 04:59:12;;;;;;;6.73;5.00;;;;;;;;;;5054762;28;20202;-29
2023/04/06 05:02:00;;;;;;;6.17;4.87;;;;;;;;;;5045941;28;20216;-29
2023/04/06 05:04:35;;;;;;;8.67;6.40;;;;;;;;;;5045061;28;20222;-27
2023/04/06 05:07:15;;;;;;;10.90;5.33;;;;;;;;;;5035382;28;20190;-37
2023/04/06 05:09:56;;;;;;;8.47;5.67;;;;;;;;;;5034274;28;20260;-26
2023/04/06 05:12:48;;;;;;;8.63;5.97;;;;;;;;;;5035338;28;20209;-26
2023/04/06 05:18:22;;;;;;;6.57;5.10;;;;;;;;;;5050734;28;20214;-29
2023/04/06 05:23:55;;;;;;;9.57;5.50;;;;;;;;;;5047558;28;20233;-26
2023/04/06 05:26:33;;;;;;;7.30;5.20;;;;;;;;;;5050501;28;20320;-29
2023/04/06 05:32:05;;;;;;;6.17;4.93;;;;;;;;;;5044907;28;20210;-29
2023/04/06 05:34:52;;;;;;;7.93;5.63;;;;;;;;;;5044408;28;20222;-29
2023/04/06 05:37:25;;;;;;;7.17;5.17;;;;;;;;;;5045545;28;20256;-30
2023/04/06 05:40:08;;;;;;;6.80;5.17;;;;;;;;;;5054831;28;20190;-28
2023/04/06 05:42:46;;;;;;;5.87;5.27;;;;;;;;;;5042541;28;20202;-27
2023/04/06 05:45:21;;;;;;;9.10;5.90;;;;;;;;;;5053694;28;20236;-26
2023/04/06 05:48:00;;;;;;;7.10;5.40;;;;;;;;;;5050760;28;20236;-26
2023/04/06 05:54:11;;;;;;;7.23;5.57;;;;;;;;;;5042677;28;20315;-28
2023/04/06 05:57:00;;;;;;;6.10;5.50;;;;;;;;;;5054904;28;20210;-28
2023/04/06 06:02:23;;;;;;;11.27;5.40;;;;;;;;;;5147214;22;20234;-26
2023/04/06 06:04:58;;;;;;;9.70;5.30;;;;;;;;;;5018341;28;20218;-26
2023/04/06 06:07:46;;;;;;;7.27;5.80;;;;;;;;;;5033933;28;20206;-26
2023/04/06 06:10:20;;;;;;;6.00;5.17;;;;;;;;;;5022791;28;20202;-28
2023/04/06 06:12:58;;;;;;;7.37;5.40;;;;;;;;;;5023095;28;20234;-29
2023/04/06 06:15:41;;;;;;;7.37;5.33;;;;;;;;;;5016583;28;20229;-28
2023/04/06 06:18:20;;;;;;;6.20;5.10;;;;;;;;;;5022543;28;20211;-28
2023/04/06 06:21:00;;;;;;;6.43;5.73;;;;;;;;;;5033738;28;20537;-28
2023/04/06 06:23:51;;;;;;;7.10;5.53;;;;;;;;;;5034120;28;20627;-29
2023/04/06 06:26:39;;;;;;;7.57;5.73;;;;;;;;;;5030889;28;20226;-28
2023/04/06 06:29:21;;;;;;;7.73;5.40;;;;;;;;;;5034390;28;20610;-29
2023/04/06 06:31:54;;;;;;;6.07;5.37;;;;;;;;;;5025926;28;20210;-37
2023/04/06 06:34:29;;;;;;;5.83;5.33;;;;;;;;;;5033478;28;20325;-28
2023/04/06 06:53:46;;;;;;;9.60;6.70;;;;;;;;;;5070398;22;20238;-30
2023/04/06 06:56:18;;;;;;;7.27;5.97;;;;;;;;;;5138062;22;20229;-27
2023/04/06 06:58:56;;;;;;;8.10;6.30;;;;;;;;;;5062036;28;20293;-27
2023/04/06 07:01:30;;;;;;;8.70;6.83;;;;;;;;;;5062473;28;20244;-28
2023/04/06 07:04:02;;;;;;;8.97;6.67;;;;;;;;;;5063953;28;20223;-26
2023/04/06 07:06:46;;;;;;;7.77;6.53;;;;;;;;;;5053373;28;20233;-28
2023/04/06 07:09:26;;;;;;;9.23;6.47;;;;;;;;;;5051387;28;20201;-27
2023/04/06 07:12:06;;;;;;;12.20;7.33;;;;;;;;;;5050071;28;20209;-30
2023/04/06 07:14:44;;;;;;;7.17;6.47;;;;;;;;;;5053248;28;20226;-28
2023/04/06 07:17:26;;;;;;;7.43;6.37;;;;;;;;;;5046795;28;20210;-28
2023/04/06 07:23:27;;;;;;;;;;;;;;;;;;;;;
2023/04/06 07:26:15;;;;;;;7.17;6.43;;;;;;;;;;5029401;28;20252;-29
2023/04/06 07:31:51;;;;;;;7.93;6.80;;;;;;;;;;5327562;22;20237;-27
2023/04/06 07:37:18;;;;;;;9.47;7.10;;;;;;;;;;5301423;22;20236;-39
2023/04/06 07:40:09;;;;;;;8.10;6.60;;;;;;;;;;5066177;28;20290;-35
2023/04/06 07:45:35;;;;;;;10.67;6.83;;;;;;;;;;5032935;28;20253;-34
2023/04/06 07:48:10;;;;;;;8.70;7.47;;;;;;;;;;5043730;28;20286;-36
2023/04/06 07:50:57;;;;;;;9.10;6.93;;;;;;;;;;5051787;28;20201;-34
2023/04/06 07:53:28;;;;;;;7.87;6.90;;;;;;;;;;5050177;28;20241;-30
2023/04/06 07:56:21;;;;;;;8.13;7.07;;;;;;;;;;5046904;28;20198;-33
2023/04/06 07:59:11;;;;;;;7.50;6.80;;;;;;;;;;5050727;28;20202;-34
2023/04/06 08:01:58;;;;;;;16.03;7.20;;;;;;;;;;5045299;28;20428;-35
2023/04/06 08:04:37;;;;;;;9.03;7.07;;;;;;;;;;5035176;28;20222;-38
2023/04/06 08:07:12;;;;;;;9.30;7.10;;;;;;;;;;5038457;28;20237;-40
2023/04/06 08:12:20;;;;;;;8.60;7.63;;;;;;;;;;5645310;22;20234;-26
2023/04/06 08:14:50;;;;;;;10.23;7.47;;;;;;;;;;5012442;28;20208;-26
2023/04/06 08:17:29;;;;;;;9.10;7.60;;;;;;;;;;5006670;28;20214;-27
2023/04/06 08:20:04;;;;;;;11.53;8.03;;;;;;;;;;5012298;28;20230;-34
2023/04/06 08:22:41;;;;;;;13.27;7.93;;;;;;;;;;5011599;28;20210;-27
2023/04/06 08:27:46;;;;;;;8.83;7.33;;;;;;;;;;5688659;22;20237;-29
2023/04/06 08:30:21;;;;;;;10.03;7.23;;;;;;;;;;5072733;28;20213;-30
2023/04/06 08:32:53;;;;;;;9.80;7.93;;;;;;;;;;5055858;28;20229;-28
2023/04/06 08:35:44;;;;;;;12.07;7.17;;;;;;;;;;5051846;28;20198;-29
2023/04/06 08:38:24;;;;;;;10.60;7.33;;;;;;;;;;5056166;28;20278;-29
2023/04/06 08:41:11;;;;;;;8.07;7.17;;;;;;;;;;5155393;22;20646;-33
2023/04/06 08:43:51;;;;;;;11.33;8.53;;;;;;;;;;5075245;28;20228;-36
2023/04/06 08:46:23;;;;;;;10.20;6.90;;;;;;;;;;5067709;28;20674;-37
2023/04/06 08:49:02;;;;;;;9.33;7.10;;;;;;;;;;5054894;28;20197;-30
2023/04/06 08:51:39;;;;;;;8.33;7.30;;;;;;;;;;5072029;28;20231;-33
2023/04/06 08:54:14;;;;;;;9.73;7.03;;;;;;;;;;5073594;28;20237;-34
2023/04/06 08:56:44;;;;;;;8.37;7.00;;;;;;;;;;5061490;28;20197;-36
2023/04/06 08:59:12;;;;;;;12.97;8.00;;;;;;;;;;5054810;28;20566;-40
2023/04/06 09:01:45;;;;;;;13.57;8.50;;;;;;;;;;5065921;28;20230;-38
2023/04/06 09:04:17;;;;;;;10.93;6.80;;;;;;;;;;5064278;28;20225;-39
2023/04/06 09:06:49;;;;;;;7.63;6.70;;;;;;;;;;5073619;28;20255;-39
2023/04/06 09:09:18;;;;;;;12.33;7.50;;;;;;;;;;5074200;28;20311;-39
2023/04/06 09:11:52;;;;;;;9.10;7.70;;;;;;;;;;5067670;28;20234;-38
2023/04/06 09:14:34;;;;;;;12.27;8.40;;;;;;;;;;5074456;22;20244;-30
2023/04/06 09:17:01;;;;;;;9.93;7.00;;;;;;;;;;5040386;28;20226;-28
2023/04/06 09:19:30;;;;;;;9.17;7.43;;;;;;;;;;5053497;28;20212;-27
2023/04/06 09:22:02;;;;;;;8.50;6.73;;;;;;;;;;5054353;28;20225;-29
2023/04/06 09:24:40;;;;;;;11.50;7.80;;;;;;;;;;5051901;28;20233;-30
2023/04/06 09:27:07;;;;;;;10.27;7.20;;;;;;;;;;5021684;28;20217;-28
2023/04/06 09:29:36;;;;;;;9.93;6.70;;;;;;;;;;5043636;28;20209;-28
2023/04/06 09:32:04;;;;;;;10.90;7.33;;;;;;;;;;5028633;28;20233;-29
2023/04/06 09:34:33;;;;;;;10.40;7.67;;;;;;;;;;5048953;28;20245;-27
2023/04/06 09:37:00;;;;;;;11.60;7.53;;;;;;;;;;5054229;28;20212;-30
2023/04/06 09:39:27;;;;;;;9.77;7.10;;;;;;;;;;5036497;28;20207;-28
2023/04/06 09:41:55;;;;;;;10.77;7.53;;;;;;;;;;5019196;28;20665;-29
2023/04/06 09:44:23;;;;;;;10.80;7.63;;;;;;;;;;5042134;28;20237;-30
2023/04/06 09:46:51;;;;;;;9.87;7.10;;;;;;;;;;5028324;28;20290;-26
2023/04/06 09:49:18;;;;;;;14.03;7.50;;;;;;;;;;5046246;28;20208;-28
2023/04/06 09:51:48;;;;;;;13.47;9.80;;;;;;;;;;5034184;28;20207;-28
2023/04/06 09:54:17;;;;;;;11.47;7.13;;;;;;;;;;5029421;28;20235;-26
2023/04/06 09:56:47;;;;;;;10.07;7.00;;;;;;;;;;5039092;28;20207;-30
2023/04/06 09:59:15;;;;;;;11.13;7.13;;;;;;;;;;5040567;28;20249;-28
2023/04/06 10:01:42;;;;;;;7.60;5.03;;;;;;;;;;5015150;28;20207;-28
2023/04/06 10:04:18;;;;;;;7.73;5.50;;;;;;;;;;5036745;28;20221;-28
2023/04/06 10:06:47;;;;;;;8.70;5.43;;;;;;;;;;5053376;28;20230;-27
2023/04/06 10:09:16;;;;;;;6.73;5.23;;;;;;;;;;5043325;28;20207;-28
2023/04/06 10:11:44;;;;;;;4.73;4.17;;;;;;;;;;5039922;28;20210;-29
2023/04/06 10:14:11;;;;;;;4.97;3.60;;;;;;;;;;5033515;28;20230;-26
2023/04/06 10:16:38;;;;;;;5.23;4.43;;;;;;;;;;5022635;28;20253;-26
2023/04/06 10:19:08;;;;;;;4.93;4.40;;;;;;;;;;5043738;28;20213;-26
2023/04/06 10:21:36;;;;;;;8.97;5.87;;;;;;;;;;5035002;28;20221;-27
2023/04/06 10:24:09;;;;;;;7.60;5.50;;;;;;;;;;5029737;28;20233;-26
2023/04/06 10:26:38;;;;;;;8.70;5.70;;;;;;;;;;5032143;28;20270;-28
2023/04/06 10:29:05;;;;;;;9.30;5.60;;;;;;;;;;5045327;28;20285;-23
2023/04/06 10:31:32;;;;;;;6.37;5.27;;;;;;;;;;5021739;28;20426;-26
2023/04/06 10:34:00;;;;;;;6.00;5.20;;;;;;;;;;5026998;28;20222;-27
2023/04/06 10:36:28;;;;;;;8.07;5.87;;;;;;;;;;5030790;28;20256;-28
2023/04/06 10:38:56;;;;;;;7.33;5.30;;;;;;;;;;5028051;28;20210;-28
2023/04/06 10:41:23;;;;;;;7.27;4.33;;;;;;;;;;5026833;28;20203;-27
2023/04/06 10:43:57;;;;;;;7.93;4.97;;;;;;;;;;5043968;28;20224;-28
2023/04/06 10:46:29;;;;;;;8.50;5.50;;;;;;;;;;5034977;28;20222;-28
2023/04/06 10:48:56;;;;;;;7.77;5.80;;;;;;;;;;5036326;28;20203;-28
2023/04/06 10:51:27;;;;;;;7.97;6.27;;;;;;;;;;5032277;28;20202;-27
2023/04/06 10:53:54;;;;;;;6.77;5.20;;;;;;;;;;5032085;28;20273;-27
2023/04/06 10:56:23;;;;;;;7.50;5.70;;;;;;;;;;5036032;28;20202;-26
2023/04/06 10:58:51;;;;;;;8.70;5.47;;;;;;;;;;5043679;28;20202;-25
2023/04/06 11:01:20;;;;;;;5.57;4.90;;;;;;;;;;5028312;28;20203;-27
2023/04/06 11:03:48;;;;;;;7.30;5.73;;;;;;;;;;5034957;28;20226;-27
2023/04/06 11:06:21;;;;;;;7.23;5.53;;;;;;;;;;5051808;28;20309;-29
2023/04/06 11:08:48;;;;;;;6.40;5.13;;;;;;;;;;5045917;28;20199;-30
2023/04/06 11:11:18;;;;;;;7.03;5.13;;;;;;;;;;5024877;28;20206;-29
2023/04/06 11:13:46;;;;;;;6.20;4.87;;;;;;;;;;5039596;28;20230;-29
2023/04/06 11:16:14;;;;;;;9.27;5.67;;;;;;;;;;5026195;28;20199;-28
2023/04/06 11:18:50;;;;;;;8.77;5.03;;;;;;;;;;5029948;28;20198;-27
2023/04/06 11:21:17;;;;;;;7.13;5.30;;;;;;;;;;5037245;28;20197;-27
2023/04/06 11:23:44;;;;;;;6.63;5.50;;;;;;;;;;5019863;28;20251;-26
2023/04/06 11:26:12;;;;;;;7.47;5.43;;;;;;;;;;5018737;28;20227;-29
2023/04/06 11:28:40;;;;;;;8.73;5.70;;;;;;;;;;5036670;28;20217;-28
2023/04/06 11:31:07;;;;;;;7.80;5.83;;;;;;;;;;5035996;28;20210;-27
2023/04/06 11:33:37;;;;;;;8.33;5.50;;;;;;;;;;5028040;28;20227;-28
2023/04/06 11:36:06;;;;;;;6.83;5.10;;;;;;;;;;5020851;28;20202;-27
2023/04/06 11:38:33;;;;;;;6.00;5.03;;;;;;;;;;5027329;28;20216;-28
2023/04/06 11:41:01;;;;;;;9.87;5.80;;;;;;;;;;5040491;28;20209;-27
2023/04/06 11:43:30;;;;;;;7.20;5.13;;;;;;;;;;5022083;28;20253;-26
2023/04/06 11:46:08;;;;;;;6.57;5.13;;;;;;;;;;5027901;28;20207;-25
2023/04/06 11:48:45;;;;;;;6.83;4.43;;;;;;;;;;5032006;28;20295;-29
2023/04/06 11:51:13;;;;;;;7.43;4.70;;;;;;;;;;5022940;28;20198;-28
2023/04/06 11:53:45;;;;;;;6.70;5.33;;;;;;;;;;5012083;28;20238;-25
2023/04/06 11:56:12;;;;;;;6.73;5.00;;;;;;;;;;5033401;28;20264;-30
2023/04/06 11:58:39;;;;;;;6.43;4.67;;;;;;;;;;5050201;28;20209;-28
2023/04/06 12:01:07;;;;;;;6.90;4.73;;;;;;;;;;5033270;28;20207;-25
2023/04/06 12:03:34;;;;;;;8.50;4.90;;;;;;;;;;5031311;28;20231;-27
2023/04/06 12:06:01;;;;;;;5.07;4.53;;;;;;;;;;5045961;28;20209;-28
2023/04/06 12:08:29;;;;;;;6.60;4.20;;;;;;;;;;5033596;28;20216;-27
2023/04/06 12:10:56;;;;;;;5.27;4.10;;;;;;;;;;5025948;28;20242;-25
2023/04/06 12:13:24;;;;;;;5.27;4.40;;;;;;;;;;5028222;28;20310;-27
2023/04/06 12:15:51;;;;;;;5.00;4.07;;;;;;;;;;5015097;28;20203;-26
2023/04/06 12:18:18;;;;;;;5.93;4.37;;;;;;;;;;5023513;28;20195;-27
2023/04/06 12:20:45;;;;;;;4.80;3.77;;;;;;;;;;5034728;28;20194;-28
2023/04/06 12:23:12;;;;;;;5.93;3.43;;;;;;;;;;5017481;28;20241;-28
2023/04/06 12:25:42;;;;;;;4.73;3.83;;;;;;;;;;5028486;28;20213;-27
2023/04/06 12:28:09;;;;;;;5.17;3.47;;;;;;;;;;5033195;28;20229;-30
2023/04/06 12:30:36;;;;;;;5.20;3.27;;;;;;;;;;5018658;28;20215;-26
2023/04/06 12:33:03;;;;;;;3.67;2.80;;;;;;;;;;5024108;28;20309;-29
2023/04/06 12:35:34;;;;;;;3.67;2.97;;;;;;;;;;5025368;28;20260;-25
2023/04/06 12:38:02;;;;;;;4.43;3.23;;;;;;;;;;5021442;28;20595;-29
2023/04/06 12:40:29;;;;;;;6.20;4.10;;;;;;;;;;5027055;28;20253;-29
2023/04/06 12:43:07;;;;;;;5.80;4.40;;;;;;;;;;5045769;28;20229;-27
2023/04/06 12:45:34;;;;;;;4.77;4.20;;;;;;;;;;5030226;28;20261;-28
2023/04/06 12:48:01;;;;;;;5.90;4.10;;;;;;;;;;5044334;28;20225;-27
2023/04/06 12:50:28;;;;;;;6.47;3.83;;;;;;;;;;5043788;28;20260;-29
2023/04/06 12:52:55;;;;;;;5.83;4.00;;;;;;;;;;5034603;28;20372;-27
2023/04/06 12:55:23;;;;;;;4.80;3.93;;;;;;;;;;5026389;28;20202;-29
2023/04/06 12:57:50;;;;;;;5.43;3.80;;;;;;;;;;5027366;28;20201;-27
2023/04/06 13:00:20;;;;;;;5.13;3.50;;;;;;;;;;5030631;28;20215;-25
2023/04/06 13:02:47;;;;;;;5.40;3.87;;;;;;;;;;5032829;28;20225;-26
2023/04/06 13:05:18;;;;;;;5.40;3.90;;;;;;;;;;5054090;28;20225;-29
2023/04/06 13:07:45;;;;;;;4.97;3.80;;;;;;;;;;5054526;28;20249;-30
2023/04/06 13:10:14;;;;;;;5.73;3.90;;;;;;;;;;5033959;28;20203;-29
2023/04/06 13:12:41;;;;;;;7.03;4.07;;;;;;;;;;5040147;28;20237;-26
2023/04/06 13:15:09;;;;;;;5.77;4.00;;;;;;;;;;5041276;28;20207;-28
2023/04/06 13:17:37;;;;;;;6.07;3.63;;;;;;;;;;5024037;28;20206;-29
2023/04/06 13:20:05;;;;;;;6.03;4.17;;;;;;;;;;5047590;28;20216;-26
2023/04/06 13:22:33;;;;;;;5.83;4.30;;;;;;;;;;5054793;28;20206;-25
2023/04/06 13:25:00;;;;;;;6.43;4.23;;;;;;;;;;5048900;28;20214;-26
2023/04/06 13:27:28;;;;;;;6.57;4.10;;;;;;;;;;5029038;28;20233;-28
2023/04/06 13:29:55;;;;;;;5.47;4.30;;;;;;;;;;5037051;28;20275;-28
2023/04/06 13:32:23;;;;;;;5.20;3.53;;;;;;;;;;5032600;28;20222;-26
2023/04/06 13:34:53;;;;;;;5.23;4.10;;;;;;;;;;5045842;28;20285;-28
2023/04/06 13:37:20;;;;;;;6.63;4.60;;;;;;;;;;5054343;28;20214;-28
2023/04/06 13:39:47;;;;;;;6.93;3.70;;;;;;;;;;5022885;28;20203;-28
2023/04/06 13:42:14;;;;;;;5.10;3.80;;;;;;;;;;5041714;28;20195;-26
2023/04/06 13:44:41;;;;;;;11.57;4.30;;;;;;;;;;5052465;28;20224;-29
2023/04/06 13:47:08;;;;;;;6.87;4.20;;;;;;;;;;5027682;28;20225;-29
2023/04/06 13:49:36;;;;;;;4.47;4.07;;;;;;;;;;5041414;28;20285;-26
2023/04/06 13:52:05;;;;;;;7.07;4.30;;;;;;;;;;5033414;28;20270;-27
2023/04/06 13:54:32;;;;;;;7.93;4.20;;;;;;;;;;5023982;28;20231;-28
2023/04/06 13:57:00;;;;;;;7.20;4.47;;;;;;;;;;5025398;28;20194;-28
2023/04/06 13:59:33;;;;;;;5.13;4.00;;;;;;;;;;5049379;28;20486;-27
2023/04/06 14:02:00;;;;;;;6.20;4.07;;;;;;;;;;5016266;28;20200;-27
2023/04/06 14:04:27;;;;;;;6.17;4.20;;;;;;;;;;5039225;28;20229;-28
2023/04/06 14:06:54;;;;;;;4.93;3.73;;;;;;;;;;5023885;28;20218;-27
2023/04/06 14:09:22;;;;;;;8.43;4.03;;;;;;;;;;5043373;28;20206;-27
2023/04/06 14:11:50;;;;;;;5.50;3.63;;;;;;;;;;5049722;28;20305;-29
2023/04/06 14:14:17;;;;;;;5.50;3.87;;;;;;;;;;5044586;28;20237;-27
2023/04/06 14:16:44;;;;;;;6.03;4.10;;;;;;;;;;5020561;28;20272;-28
2023/04/06 14:19:12;;;;;;;5.50;3.47;;;;;;;;;;5027983;28;20206;-26
2023/04/06 14:21:39;;;;;;;6.50;3.50;;;;;;;;;;5030047;28;20297;-28
2023/04/06 14:24:07;;;;;;;5.63;3.77;;;;;;;;;;5029773;28;20727;-27
2023/04/06 14:26:35;;;;;;;3.43;3.13;;;;;;;;;;5016121;28;20226;-25
2023/04/06 14:29:03;;;;;;;7.97;5.13;;;;;;;;;;5034211;28;20228;-27
2023/04/06 14:31:31;;;;;;;5.43;3.47;;;;;;;;;;5020324;28;20222;-27
2023/04/06 14:34:02;;;;;;;4.60;3.57;;;;;;;;;;5026648;28;20226;-26
2023/04/06 14:36:35;;;;;;;5.63;3.47;;;;;;;;;;5031665;28;20218;-29
2023/04/06 14:39:04;;;;;;;4.60;3.13;;;;;;;;;;5026637;28;20405;-29
2023/04/06 14:41:31;;;;;;;4.70;3.53;;;;;;;;;;5021807;28;20207;-28
2023/04/06 14:43:59;;;;;;;4.10;3.20;;;;;;;;;;5033923;28;20262;-26
2023/04/06 14:46:27;;;;;;;4.73;3.70;;;;;;;;;;5021983;28;20219;-28
2023/04/06 14:48:56;;;;;;;4.17;3.00;;;;;;;;;;5031866;28;20222;-26
2023/04/06 14:51:23;;;;;;;4.30;3.20;;;;;;;;;;5032352;28;20206;-25
2023/04/06 14:53:50;;;;;;;4.90;2.87;;;;;;;;;;5033064;28;20227;-27
2023/04/06 14:56:21;;;;;;;3.30;2.60;;;;;;;;;;5019119;28;20399;-31
2023/04/06 14:58:48;;;;;;;3.07;2.40;;;;;;;;;;5030600;28;20210;-28
2023/04/06 15:01:17;;;;;;;5.13;2.63;;;;;;;;;;5032873;28;20199;-26
2023/04/06 15:03:44;;;;;;;4.23;2.60;;;;;;;;;;5034075;28;20222;-29
2023/04/06 15:06:14;;;;;;;4.00;2.80;;;;;;;;;;5036791;28;20199;-25
2023/04/06 15:08:42;;;;;;;3.70;2.67;;;;;;;;;;5030575;28;20231;-28
2023/04/06 15:11:09;;;;;;;5.60;3.33;;;;;;;;;;5028774;28;20206;-39
2023/04/06 15:13:36;;;;;;;5.27;2.90;;;;;;;;;;5035681;28;20221;-35
2023/04/06 15:16:03;;;;;;;4.97;2.87;;;;;;;;;;5131315;22;20236;-27
2023/04/06 15:18:31;;;;;;;3.33;2.57;;;;;;;;;;5042576;28;20205;-28
2023/04/06 15:20:58;;;;;;;5.53;3.00;;;;;;;;;;5041077;28;20214;-27
2023/04/06 15:23:29;;;;;;;4.43;2.80;;;;;;;;;;5037734;28;20249;-30
2023/04/06 15:25:56;;;;;;;4.73;3.23;;;;;;;;;;5022859;28;20256;-26
2023/04/06 15:28:24;;;;;;;4.13;3.50;;;;;;;;;;5023340;28;20294;-27
2023/04/06 15:30:52;;;;;;;4.17;3.13;;;;;;;;;;5016694;28;20203;-25
2023/04/06 15:33:21;;;;;;;4.60;3.37;;;;;;;;;;5027124;28;20289;-26
2023/04/06 15:35:50;;;;;;;7.10;3.30;;;;;;;;;;5025512;28;20203;-27
2023/04/06 15:38:17;;;;;;;4.67;2.60;;;;;;;;;;5027200;28;20227;-29
2023/04/06 15:40:45;;;;;;;4.00;2.90;;;;;;;;;;5019451;28;20310;-28
2023/04/06 15:43:12;;;;;;;3.97;3.03;;;;;;;;;;5025695;28;20231;-26
2023/04/06 15:45:40;;;;;;;3.23;2.30;;;;;;;;;;5017444;28;20305;-26
2023/04/06 15:48:07;;;;;;;3.07;2.60;;;;;;;;;;5027666;28;20223;-26
2023/04/06 15:50:35;;;;;;;2.50;2.30;;;;;;;;;;5028660;28;20190;-26
2023/04/06 15:53:07;;;;;;;4.17;2.90;;;;;;;;;;5035727;28;20222;-28
2023/04/06 15:55:35;;;;;;;3.60;2.77;;;;;;;;;;5030784;28;20213;-26
2023/04/06 15:58:03;;;;;;;4.47;2.87;;;;;;;;;;5031889;28;20198;-28
2023/04/06 16:00:31;;;;;;;6.33;3.70;;;;;;;;;;5018055;28;20224;-29
2023/04/06 16:03:11;;;;;;;3.63;2.80;;;;;;;;;;5027173;28;20285;-28
2023/04/06 16:05:38;;;;;;;4.33;2.60;;;;;;;;;;5014899;28;20294;-30
2023/04/06 16:08:11;;;;;;;4.87;2.97;;;;;;;;;;5017538;28;20237;-29
2023/04/06 16:10:38;;;;;;;4.13;2.80;;;;;;;;;;5025567;28;20298;-27
2023/04/06 16:13:05;;;;;;;3.63;2.97;;;;;;;;;;5016015;28;20294;-28
2023/04/06 16:15:32;;;;;;;4.30;2.70;;;;;;;;;;5023287;28;20307;-30
2023/04/06 16:18:00;;;;;;;3.17;2.67;;;;;;;;;;5018623;28;20211;-28
2023/04/06 16:20:28;;;;;;;5.83;3.17;;;;;;;;;;5014831;28;20215;-27
2023/04/06 16:22:55;;;;;;;3.50;2.90;;;;;;;;;;5014539;28;20267;-28
2023/04/06 16:25:23;;;;;;;3.63;2.90;;;;;;;;;;5015744;28;20216;-29
2023/04/06 16:27:51;;;;;;;4.77;3.20;;;;;;;;;;5026501;28;20222;-29
2023/04/06 16:30:18;;;;;;;4.63;3.30;;;;;;;;;;5018180;28;20204;-28
2023/04/06 16:32:46;;;;;;;3.80;2.90;;;;;;;;;;5014053;28;20225;-27